Decoded Metar for KPQL (PASCAGOULA in MS, USA) (IATA:PQL) | Meteo·Mobile Aviation Weather
aviador You're here:

KPQL Decoded Metar

PASCAGOULA in MS, USA
Report Time2018-09-18 12:53:00
UTC Time2018-09-18 13:19:35
Flight Rules vfr VFR
WindCalm
Visibility9999 m
Phenomena:N/A
Clouds:N/A
Expected CloudBase > 800 ft AGL from Temp-Dew spread
CeilingNone
Temp27°C (ISA +12)
Dew Point25°C (89% RH)
Heat Index30.6°C
QNH1015 hPa
Density Alt1,755 ft
Elevation20 ft
Report Wrong Elevation
Raw Report
KPQL 181253Z 00000KT 10SM CLR 27/25 A2997 RMK AO2 LTG DSNT SE
SLP150 T02670250=

Extra information for KPQL:More info

Metar Taf Metar & Taf Last 4 Metars F.Rules Stats Wind Profile Meteogram Temp Stats Airport Information Weather charts Add Link Nearby VenuesMetar ALERT Operation Metar Decoded Social comments

AIRNAV info for KPQL